Tiempo atmosférico en la estación meteorológica de Alhama de Murcia, Murcia (157 m.)



Fecha
DESCASC
Temp. máxima en grados centígrados (hora)
DESCASC
Temp. mínima en grados centígrados (hora)
DESCASC
Temp. media en grados centígrados
DESCASC
Racha de viento máxima en m/sg (hora)
DESCASC
Velocidad máxima media en intervalos de 10 minutos(hora)
DESCASC
Precipitaciones diarias en mm
DESCASC
Precipitaciones de 00:00 a 06:00 en mm
DESCASC
Precipitaciones de 06:00 a 12:00 en mm
DESCASC
Precipitaciones de 12:00 a 18:00 en mm
DESCASC
Precipitaciones de 18:00 a 24:00 en mm
DESCASC
20-09-2018 32.3 (17:20) 19.7 (06:10) 26 9.44 (18:10) 5 (18:10) 0 0 0 0 0
19-09-2018 32.3 (16:30) 20.2 (07:30) 26.3 10.28 (17:50) 5.56 (17:50) 0 0 0 0 0
18-09-2018 31.6 (16:20) 19.9 (06:10) 25.8 7.78 (17:30) 4.17 (17:30) 0.4 0 0.2 0.2 0
17-09-2018 27.1 (17:20) 20.2 (03:10) 23.7 5.56 (15:30) 3.33 (12:20) 0.4 0 0 0 0.4
16-09-2018 29.5 (16:30) 19 (00:00) 24.3 5.56 (16:30) 3.61 (18:30) 0 0 0 0 0
15-09-2018 24 (18:30) 19.7 (00:00) 21.9 7.22 (02:30) 3.61 (02:40) 23 4.8 13 5.2 0
14-09-2018 30.9 (15:10) 20.7 (00:00) 25.8 7.78 (17:30) 4.72 (17:30) 0 0 0 0 0
13-09-2018 33 (16:40) 19.9 (00:00) 26.4 8.33 (17:20) 3.61 (17:20) 0 0 0 0 0
12-09-2018 32.4 (16:30) 20.8 (00:00) 26.6 8.89 (17:50) 5.28 (17:40) 0 0 0 0 0
11-09-2018 28.1 (18:00) 20.3 (00:00) 24.2 8.61 (16:30) 5.28 (18:10) 0 0 0 0 0
10-09-2018 29.9 (15:40) 19.8 (00:00) 24.8 8.61 (18:30) 5.28 (18:10) 0 0 0 0 0
09-09-2018 25.9 (16:30) 19 (00:00) 22.4 9.72 (15:10) 5.56 (15:00) 3.6 0 3.4 0.2 0
08-09-2018 24.3 (18:50) 18.6 (00:00) 21.4 11.94 (13:10) 7.22 (13:10) 11.2 0 8.6 2.4 0.2
07-09-2018 32.6 (16:40) 20.3 (00:00) 26.4 16.94 (15:10) 4.72 (16:20) 0 0 0 0 0
06-09-2018 33.9 (16:00) 19.8 (00:00) 26.9 11.11 (17:20) 6.67 (17:30) 0 0 0 0 0
05-09-2018 32.8 (15:00) 19.8 (00:00) 26.3 11.11 (16:00) 6.39 (16:10) 0.2 0 0.2 0 0
04-09-2018 34.2 (17:00) 19.6 (00:00) 26.9 10.56 (18:20) 5.28 (18:20) 0 0 0 0 0
03-09-2018 32.8 (15:30) 21.1 (00:00) 26.9 6.39 (20:40) 4.17 (19:40) 0 0 0 0 0
02-09-2018 35.5 (17:10) 19.9 (00:00) 27.7 8.33 (17:50) 5 (18:00) 0 0 0 0 0
01-09-2018 33 (16:50) 21.5 (00:00) 27.3 7.5 (17:20) 4.17 (16:00) 0 0 0 0 0
31-08-2018 33.5 (16:20) 20.7 (00:00) 27.1 7.22 (15:40) 4.17 (15:50) 0 0 0 0 0
30-08-2018 31.9 (15:20) 22.9 (00:00) 27.4 7.78 (18:10) 5.28 (18:10) 0 0 0 0 0
29-08-2018 35.6 (16:50) 19.9 (00:00) 27.7 11.67 (18:20) 6.94 (18:20) 0 0 0 0 0
28-08-2018 35.6 (17:00) 20.5 (00:00) 28 8.06 (19:00) 4.17 (19:00) 0 0 0 0 0
27-08-2018 34.5 (15:30) 21.9 (00:00) 28.2 8.33 (15:00) 4.72 (16:10) 0 0 0 0 0
26-08-2018 33.5 (17:00) 21.2 (00:00) 27.4 7.5 (16:20) 5 (17:10) 0 0 0 0 0
25-08-2018 35.1 (16:50) 21.6 (00:00) 28.3 8.06 (20:20) 3.89 (19:20) 0 0 0 0 0

Gráficas

Temp. máximas Temp. mínimas Temp. medias Precipitaciones Rachas de viento máximas Velocidades máximas media en intervalos de 10 minutos

Datos horarios

Fecha y hora oficial Temperatura (ºC) Velocidad del viento (km/h) Dirección del viento Racha (km/h) Dirección de racha Precipitación (mm) Presión (hPa) Tendencia (hPa) Humedad (%)
2018-09-23 23:00:00 22.3 0 Calma 8 Sudoeste 0 -- -- 62
2018-09-23 22:00:00 23.9 8 Sudoeste 19 Sudoeste 0 -- -- 51
2018-09-23 21:00:00 25.4 8 Sudoeste 22 Sudoeste 0 -- -- 47
2018-09-23 20:00:00 27.4 11 Sudoeste 26 Sudoeste 0 -- -- 44
2018-09-23 19:00:00 32.2 12 Sudoeste 29 Sudoeste 0 -- -- 33
2018-09-23 18:00:00 34.2 8 Sur 24 Sur 0 -- -- 28
2018-09-23 17:00:00 34.4 14 Sur 26 Sur 0 -- -- 31
2018-09-23 16:00:00 34.6 14 Sudoeste 28 Sudoeste 0 -- -- 29
2018-09-23 15:00:00 34.7 14 Sudoeste 26 Sudoeste 0 -- -- 23
2018-09-23 14:00:00 33 9 Oeste 18 Sudoeste 0 -- -- 25
2018-09-23 13:00:00 31.2 3 Sudoeste 15 Oeste 0 -- -- 34
2018-09-23 12:00:00 28.2 3 Nordeste 6 Norte 0 -- -- 43
2018-09-23 11:00:00 25.2 2 Oeste 5 Sudoeste 0 -- -- 59
2018-09-23 10:00:00 22.1 0 Calma 4 Norte 0 -- -- 68
2018-09-23 09:00:00 17.8 2 Sudoeste 5 Sudoeste 0 -- -- 91
2018-09-23 08:00:00 16.7 0 Calma 5 Nordeste 0 -- -- 90
2018-09-23 07:00:00 17.1 0 Calma 6 Sudoeste 0 -- -- 89
2018-09-23 06:00:00 17.8 5 Sudoeste 8 Nordeste 0 -- -- 84
2018-09-23 05:00:00 18.4 6 Nordeste 9 Nordeste 0 -- -- 78
2018-09-23 04:00:00 17.9 0 Calma 5 Sudeste 0 -- -- 87
2018-09-23 03:00:00 18.3 0 Calma 4 Sur 0 -- -- 87
2018-09-23 02:00:00 19.3 2 Sudoeste 6 Sur 0 -- -- 83
2018-09-23 01:00:00 20.4 4 Sur 10 Sudoeste 0 -- -- 80
2018-09-23 00:00:00 22.2 7 Sudoeste 15 Sur 0 -- -- 68
2018-09-22 23:00:00 21.7 5 Sur 13 Sudoeste 0 -- -- 59
2018-09-22 22:00:00 22.5 6 Sudoeste 12 Sudoeste 0 -- -- 61
2018-09-22 21:00:00 25 8 Sudoeste 19 Sudoeste 0 -- -- 52
2018-09-22 20:00:00 27.6 8 Sudoeste 22 Sudoeste 0 -- -- 39
2018-09-22 19:00:00 30.9 13 Sudoeste 25 Sudoeste 0 -- -- 33
2018-09-22 18:00:00 33 9 Sur 33 Sudoeste 0 -- -- 39
2018-09-22 17:00:00 32 17 Sudoeste 28 Sudoeste 0 -- -- 42
2018-09-22 16:00:00 32.7 15 Sudoeste 30 Sudoeste 0 -- -- 44
2018-09-22 15:00:00 33.1 12 Sudoeste 24 Sur 0 -- -- 36
2018-09-22 14:00:00 30.9 4 Oeste 12 Oeste 0 -- -- 48
2018-09-22 13:00:00 29 3 Norte 9 Este 0 -- -- 54
2018-09-22 12:00:00 27 5 Nordeste 11 Nordeste 0 -- -- 65
2018-09-22 11:00:00 25.1 5 Nordeste 9 Nordeste 0 -- -- 77
2018-09-22 10:00:00 22.7 4 Norte 6 Norte 0 -- -- 84
2018-09-22 09:00:00 19.6 4 Este 6 Este 0 -- -- 97
2018-09-22 08:00:00 18 2 Sudoeste 8 Sur 0 -- -- 97
2018-09-22 07:00:00 18.3 4 Sur 9 Sur 0 -- -- 96
2018-09-22 06:00:00 18.6 3 Sur 6 Sudoeste 0 -- -- 96
2018-09-22 05:00:00 19.2 0 Calma 6 Este 0 -- -- 94
2018-09-22 04:00:00 19.6 0 Calma 4 Sudeste 0 -- -- 95
2018-09-22 03:00:00 19.9 0 Calma 5 Sur 0 -- -- 94
2018-09-22 02:00:00 20.5 4 Sur 7 Sur 0 -- -- 94
2018-09-22 01:00:00 20.6 5 Sur 6 Sur 0 -- -- 92
2018-09-22 00:00:00 21.4 4 Sur 8 Sudoeste 0 -- -- 88
2018-09-21 23:00:00 22.3 4 Sur 13 Sudoeste 0 -- -- 84
2018-09-21 22:00:00 23.3 8 Sudoeste 16 Sudoeste 0 -- -- 79
2018-09-21 21:00:00 25.1 12 Oeste 23 Sudoeste 0 -- -- 69
2018-09-21 20:00:00 26.4 13 Sudoeste 27 Sudoeste 0 -- -- 62
2018-09-21 19:00:00 28.7 14 Sudoeste 31 Sudoeste 0 -- -- 57
2018-09-21 18:00:00 30.4 15 Sudoeste 32 Sudoeste 0 -- -- 53
2018-09-21 17:00:00 31.9 15 Sudoeste 26 Sudoeste 0 -- -- 48
2018-09-21 16:00:00 32.1 15 Sudoeste 25 Sudoeste 0 -- -- 45
2018-09-21 15:00:00 31.8 12 Sudoeste 21 Sudoeste 0 -- -- 49
2018-09-21 14:00:00 31 11 Sudoeste 22 Sur 0 -- -- 48
2018-09-21 13:00:00 29 12 Sudoeste 21 Sudoeste 0 -- -- 55
2018-09-21 12:00:00 26.8 10 Sudoeste 15 Sudoeste 0 -- -- 61
2018-09-21 11:00:00 24.6 6 Oeste 10 Oeste 0 -- -- 69
2018-09-21 10:00:00 21.3 5 Sudoeste 8 Sudoeste 0 -- -- 85
2018-09-21 09:00:00 18.7 2 Sur 6 Sudoeste 0 -- -- 97
2018-09-21 08:00:00 17.7 3 Sudoeste 6 Oeste 0 -- -- 96
2018-09-21 07:00:00 18 4 Sudoeste 8 Sudoeste 0 -- -- 96
2018-09-21 06:00:00 18.6 3 Oeste 7 Sur 0 -- -- 96
2018-09-21 05:00:00 18.9 0 Calma 4 Sudeste 0 -- -- 97
2018-09-21 04:00:00 19.1 2 Sur 6 Sudoeste 0 -- -- 96
2018-09-21 03:00:00 19.6 3 Sudoeste 6 Sudoeste 0 -- -- 95
2018-09-21 02:00:00 20.1 5 Sudoeste 7 Sudoeste 0 -- -- 95
2018-09-21 01:00:00 20.6 3 Sur 6 Sur 0 -- -- 94
2018-09-21 00:00:00 21.2 3 Sudoeste 6 Sudoeste 0 -- -- 92
2018-09-20 23:00:00 21.9 2 Este 14 Oeste 0 -- -- 89
2018-09-20 22:00:00 22.9 4 Sudoeste 21 Sudoeste 0 -- -- 83
2018-09-20 21:00:00 23.9 11 Sudoeste 20 Oeste 0 -- -- 79
2018-09-20 20:00:00 25.7 10 Sudoeste 27 Sudoeste 0 -- -- 72
2018-09-20 19:00:00 27 13 Sudoeste 34 Sudoeste 0 -- -- 66
2018-09-20 18:00:00 30.2 14 Sudoeste 29 Sudoeste 0 -- -- 55
2018-09-20 17:00:00 32 9 Sudoeste 18 Oeste 0 -- -- 42
2018-09-20 16:00:00 31.7 10 Sudoeste 22 Oeste 0 -- -- 44
2018-09-20 15:00:00 31.2 12 Sudoeste 24 Sur 0 -- -- 47
2018-09-20 14:00:00 29.7 12 Sudoeste 21 Sudoeste 0 -- -- 52
2018-09-20 13:00:00 28.5 6 Sudoeste 14 Sudoeste 0 -- -- 57
2018-09-20 12:00:00 26.8 4 Noroeste 10 Sudoeste 0 -- -- 63
2018-09-20 11:00:00 25.1 3 Noroeste 8 Nordeste 0 -- -- 70
2018-09-20 10:00:00 23.5 2 Nordeste 6 Este 0 -- -- 80
2018-09-20 09:00:00 21.5 3 Nordeste 5 Este 0 -- -- 94
2018-09-20 08:00:00 20.4 2 Norte 8 Este 0 -- -- 97
2018-09-20 07:00:00 19.8 4 Norte 8 Este 0 -- -- 97
2018-09-20 06:00:00 19.8 4 Este 5 Este 0 -- -- 96
2018-09-20 05:00:00 20.2 4 Nordeste 6 Este 0 -- -- 96
2018-09-20 04:00:00 20 0 Calma 6 Sudeste 0 -- -- 94
2018-09-20 03:00:00 20.6 0 Calma 3 Este 0 -- -- 94
2018-09-20 02:00:00 21.1 0 Calma 7 Sur 0 -- -- 94
2018-09-20 01:00:00 21.5 4 Sur 6 Sur 0 -- -- 92
2018-09-20 00:00:00 22.8 2 Este 5 Norte 0 -- -- 90
2018-09-19 23:00:00 23.5 4 Nordeste 10 Nordeste 0 -- -- 87
2018-09-19 22:00:00 23.6 2 Sudoeste 9 Oeste 0 -- -- 86
2018-09-19 21:00:00 24.4 2 Norte 17 Sudoeste 0 -- -- 84
2018-09-19 20:00:00 25.4 12 Sudoeste 24 Oeste 0 -- -- 79
2018-09-19 19:00:00 26.7 7 Sudoeste 31 Sudoeste 0 -- -- 74
2018-09-19 18:00:00 28.3 17 Sudoeste 37 Sudoeste 0 -- -- 68
2018-09-19 17:00:00 31 15 Sudoeste 25 Sudoeste 0 -- -- 56
2018-09-19 16:00:00 32 6 Sudoeste 17 Oeste 0 -- -- 44
2018-09-19 15:00:00 30.9 4 Oeste 17 Norte 0 -- -- 41
2018-09-19 14:00:00 29.3 7 Norte 19 Norte 0 -- -- 47
2018-09-19 13:00:00 28.2 10 Nordeste 18 Nordeste 0 -- -- 52
2018-09-19 12:00:00 26.5 11 Nordeste 19 Nordeste 0 -- -- 61
2018-09-19 11:00:00 25.1 10 Nordeste 17 Nordeste 0 -- -- 75
2018-09-19 10:00:00 23.1 6 Norte 9 Norte 0 -- -- 84
2018-09-19 09:00:00 21.5 4 Nordeste 10 Este 0 -- -- 90
2018-09-19 08:00:00 20.2 8 Nordeste 10 Nordeste 0 -- -- 93
2018-09-19 07:00:00 20.5 6 Este 8 Nordeste 0 -- -- 94
2018-09-19 06:00:00 21 5 Nordeste 13 Nordeste 0 -- -- 95
2018-09-19 05:00:00 20.7 6 Nordeste 10 Nordeste 0 -- -- 96
2018-09-19 04:00:00 20.9 4 Norte 11 Nordeste 0 -- -- 94
2018-09-19 03:00:00 21.9 7 Nordeste 14 Este 0 -- -- 92
2018-09-19 02:00:00 21.5 6 Sur 10 Sur 0 -- -- 93
2018-09-19 01:00:00 22.6 3 Sudoeste 11 Este 0 -- -- 88
2018-09-19 00:00:00 22.5 7 Nordeste 12 Nordeste 0 -- -- 89
2018-09-18 23:00:00 22.6 5 Nordeste 14 Nordeste 0 -- -- 89
2018-09-18 22:00:00 23.2 8 Nordeste 12 Nordeste 0 -- -- 86
2018-09-18 21:00:00 24.1 4 Noroeste 24 Nordeste 0 -- -- 78
2018-09-18 20:00:00 25.4 10 Norte 21 Sudoeste 0 -- -- 73
2018-09-18 19:00:00 26.1 8 Sudoeste 22 Sudoeste 0 -- -- 70
2018-09-18 18:00:00 25.2 13 Sudoeste 28 Sur 0.2 -- -- 70
2018-09-18 17:00:00 28.6 8 Sur 22 Sudeste 0 -- -- 64
2018-09-18 16:00:00 30.5 5 Este 17 Este 0 -- -- 48
2018-09-18 15:00:00 30.3 8 Norte 15 Nordeste 0 -- -- 46
2018-09-18 14:00:00 29 7 Norte 15 Nordeste 0 -- -- 58
2018-09-18 13:00:00 27.6 8 Nordeste 17 Nordeste 0 -- -- 63
2018-09-18 12:00:00 26.5 8 Nordeste 17 Nordeste 0.2 -- -- 70
2018-09-18 11:00:00 25 10 Nordeste 15 Nordeste 0 -- -- 77
2018-09-18 10:00:00 23.2 6 Nordeste 10 Nordeste 0 -- -- 88
2018-09-18 09:00:00 21 5 Nordeste 9 Norte 0 -- -- 98
2018-09-18 08:00:00 20.8 4 Norte 11 Este 0 -- -- 99
2018-09-18 07:00:00 20 5 Nordeste 6 Nordeste 0 -- -- 98
2018-09-18 06:00:00 20.1 4 Norte 6 Nordeste 0 -- -- 98
2018-09-18 05:00:00 20.3 4 Nordeste 6 Nordeste 0 -- -- 98
2018-09-18 04:00:00 20.6 5 Nordeste 7 Nordeste 0 -- -- 98
2018-09-18 03:00:00 20.7 4 Norte 10 Nordeste 0 -- -- 97
2018-09-18 02:00:00 20.8 5 Nordeste 9 Nordeste 0 -- -- 98
2018-09-18 01:00:00 20.8 6 Este 8 Este 0 -- -- 96
2018-09-18 00:00:00 20.9 2 Sudeste 3 Este 0 -- -- 95
2018-09-17 23:00:00 21.6 0 Calma 7 Este 0 -- -- 94
2018-09-17 22:00:00 22.1 5 Norte 12 Nordeste 0 -- -- 93
2018-09-17 21:00:00 22.7 4 Nordeste 9 Nordeste 0 -- -- 93
2018-09-17 20:00:00 23.6 10 Sur 17 Sur 0.4 -- -- 89
2018-09-17 19:00:00 25.5 8 Nordeste 16 Nordeste 0 -- -- 77
2018-09-17 18:00:00 26.2 10 Norte 19 Nordeste 0 -- -- 71
2018-09-17 17:00:00 26.3 10 Nordeste 17 Nordeste 0 -- -- 69
2018-09-17 16:00:00 26 9 Norte 20 Nordeste 0 -- -- 70
2018-09-17 15:00:00 25.9 8 Nordeste 13 Norte 0 -- -- 70
2018-09-17 14:00:00 24.7 5 Nordeste 15 Nordeste 0 -- -- 77
2018-09-17 13:00:00 24.6 11 Nordeste 19 Nordeste 0 -- -- 76
2018-09-17 12:00:00 23.6 11 Nordeste 18 Nordeste 0 -- -- 82
2018-09-17 11:00:00 23.4 6 Nordeste 11 Nordeste 0 -- -- 83
2018-09-17 10:00:00 22.9 5 Norte 10 Norte 0 -- -- 87
2018-09-17 09:00:00 22.2 6 Norte 20 Este 0 -- -- 91
2018-09-17 08:00:00 21.4 5 Nordeste 9 Nordeste 0 -- -- 96
2018-09-17 07:00:00 21.1 8 Norte 13 Norte 0 -- -- 96
2018-09-17 06:00:00 21.1 4 Norte 6 Norte 0 -- -- 95
2018-09-17 05:00:00 20.7 3 Norte 8 Este 0 -- -- 96
2018-09-17 04:00:00 20.3 2 Noroeste 6 Sudeste 0 -- -- 96
2018-09-17 03:00:00 20.3 7 Sur 8 Sur 0 -- -- 95
2018-09-17 02:00:00 20.5 2 Nordeste 7 Norte 0 -- -- 94
2018-09-17 01:00:00 21 5 Norte 12 Este 0 -- -- 92
2018-09-17 00:00:00 21.4 6 Nordeste 9 Nordeste 0 -- -- 93
2018-09-16 23:00:00 21.8 3 Sudeste 10 Nordeste 0 -- -- 91
2018-09-16 22:00:00 23.2 8 Nordeste 16 Nordeste 0 -- -- 87
2018-09-16 21:00:00 23.8 3 Nordeste 14 Norte 0 -- -- 82
2018-09-16 20:00:00 25.7 10 Norte 18 Nordeste 0 -- -- 69
2018-09-16 19:00:00 27.7 11 Nordeste 19 Nordeste 0 -- -- 60
2018-09-16 18:00:00 28.6 9 Nordeste 19 Norte 0 -- -- 57
2018-09-16 17:00:00 28.4 9 Nordeste 20 Nordeste 0 -- -- 58
2018-09-16 16:00:00 29.3 10 Norte 20 Nordeste 0 -- -- 55
2018-09-16 15:00:00 28.6 4 Norte 12 Nordeste 0 -- -- 54
2018-09-16 14:00:00 28 5 Este 12 Este 0 -- -- 56
2018-09-16 13:00:00 26 6 Nordeste 18 Nordeste 0 -- -- 66
2018-09-16 12:00:00 25.1 10 Nordeste 18 Este 0 -- -- 68
2018-09-16 11:00:00 22.9 4 Nordeste 16 Nordeste 0 -- -- 76
2018-09-16 10:00:00 21.4 6 Norte 13 Este 0 -- -- 87
2018-09-16 09:00:00 19.8 6 Nordeste 11 Este 0 -- -- 92
2018-09-16 08:00:00 20.1 6 Nordeste 15 Este 0 -- -- 86
2018-09-16 07:00:00 19.7 7 Nordeste 12 Este 0 -- -- 89
2018-09-16 06:00:00 19.2 7 Nordeste 12 Este 0 -- -- 93
2018-09-16 05:00:00 19.2 8 Nordeste 13 Nordeste 0 -- -- 94
2018-09-16 04:00:00 19.3 4 Nordeste 9 Este 0 -- -- 93
2018-09-16 03:00:00 19.5 5 Este 8 Este 0 -- -- 95
2018-09-16 02:00:00 19.6 0 Calma 9 Este 0 -- -- 94
2018-09-16 01:00:00 19.9 4 Este 9 Este 0 -- -- 93
2018-09-16 00:00:00 19.7 4 Este 6 Nordeste 0 -- -- 96
2018-09-15 23:00:00 20 0 Calma 4 Norte 0 -- -- 94
2018-09-15 22:00:00 20.7 3 Nordeste 11 Este 0 -- -- 92
2018-09-15 21:00:00 21.6 7 Este 10 Este 0 -- -- 88
2018-09-15 20:00:00 23.1 6 Nordeste 16 Este 0 -- -- 80
2018-09-15 19:00:00 24 11 Este 18 Este 0 -- -- 77
2018-09-15 18:00:00 23.7 12 Nordeste 19 Este 0 -- -- 79
2018-09-15 17:00:00 22.4 11 Nordeste 17 Este 0 -- -- 91
2018-09-15 16:00:00 21.9 12 Norte 19 Nordeste 2.8 -- -- 95
2018-09-15 15:00:00 21.1 10 Nordeste 17 Nordeste 2.4 -- -- 95
2018-09-15 14:00:00 21.5 11 Nordeste 17 Este 0 -- -- 94
2018-09-15 13:00:00 21.1 7 Este 11 Este 0 -- -- 95
2018-09-15 12:00:00 20.9 6 Este 12 Este 1 -- -- 95
2018-09-15 11:00:00 20.7 5 Nordeste 13 Norte 0 -- -- 96
2018-09-15 10:00:00 20.5 7 Nordeste 12 Nordeste 0.2 -- -- 98
2018-09-15 09:00:00 20.1 4 Norte 8 Nordeste 4.2 -- -- 98
2018-09-15 08:00:00 19.9 4 Nordeste 9 Norte 1.6 -- -- 98
2018-09-15 07:00:00 19.9 5 Nordeste 12 Norte 6 -- -- 97
2018-09-15 06:00:00 20.4 8 Nordeste 18 Norte 4 -- -- 96
2018-09-15 05:00:00 21.3 6 Norte 12 Nordeste 0.8 -- -- 94
2018-09-15 04:00:00 21.4 6 Nordeste 17 Norte 0 -- -- 91
2018-09-15 03:00:00 21.3 10 Nordeste 26 Nordeste 0 -- -- 89
2018-09-15 02:00:00 22.7 4 Este 10 Nordeste 0 -- -- 83
2018-09-15 01:00:00 22.3 4 Norte 6 Nordeste 0 -- -- 85
2018-09-15 00:00:00 21.8 5 Nordeste 8 Nordeste 0 -- -- 86
2018-09-14 23:00:00 22.7 6 Nordeste 10 Nordeste 0 -- -- 79
2018-09-14 22:00:00 23.8 7 Nordeste 16 Norte 0 -- -- 73
2018-09-14 21:00:00 24.4 11 Nordeste 18 Nordeste 0 -- -- 72
2018-09-14 20:00:00 25.8 6 Nordeste 22 Nordeste 0 -- -- 63
2018-09-14 19:00:00 27.4 13 Nordeste 23 Este 0 -- -- 53
2018-09-14 18:00:00 27.6 12 Este 28 Este 0 -- -- 59
2018-09-14 17:00:00 29.1 15 Nordeste 27 Nordeste 0 -- -- 56
2018-09-14 16:00:00 29.1 13 Nordeste 27 Nordeste 0 -- -- 52
2018-09-14 15:00:00 30.2 8 Nordeste 24 Nordeste 0 -- -- 49
2018-09-14 14:00:00 29.4 7 Nordeste 18 Norte 0 -- -- 53
2018-09-14 13:00:00 28.9 4 Norte 12 Nordeste 0 -- -- 55
2018-09-14 12:00:00 27.7 4 Nordeste 13 Nordeste 0 -- -- 62
2018-09-14 11:00:00 25.8 6 Norte 13 Norte 0 -- -- 74
2018-09-14 10:00:00 23.4 7 Nordeste 10 Nordeste 0 -- -- 86
2018-09-14 09:00:00 21.8 7 Nordeste 10 Norte 0 -- -- 92
2018-09-14 08:00:00 21.3 3 Norte 6 Este 0 -- -- 93
2018-09-14 07:00:00 20.9 4 Sudeste 6 Sur 0 -- -- 95
2018-09-14 06:00:00 20.9 4 Sur 6 Sur 0 -- -- 94
2018-09-14 05:00:00 21.3 3 Nordeste 8 Nordeste 0 -- -- 92
2018-09-14 04:00:00 21.2 5 Este 5 Este 0 -- -- 92
2018-09-14 03:00:00 22 0 Calma 8 Nordeste 0 -- -- 90
2018-09-14 02:00:00 22.5 6 Este 8 Nordeste 0 -- -- 89
2018-09-14 01:00:00 23.1 4 Nordeste 9 Este 0 -- -- 87
2018-09-14 00:00:00 23.7 6 Nordeste 10 Nordeste 0 -- -- 85
2018-09-13 23:00:00 24.4 6 Este 16 Sudoeste 0 -- -- 82
2018-09-13 22:00:00 25.3 4 Oeste 15 Este 0 -- -- 77
2018-09-13 21:00:00 26.2 3 Noroeste 17 Oeste 0 -- -- 70
2018-09-13 20:00:00 27.9 7 Sudoeste 17 Norte 0 -- -- 62
2018-09-13 19:00:00 30.2 8 Norte 17 Sudeste 0 -- -- 51
2018-09-13 18:00:00 31.4 9 Sudeste 30 Sudeste 0 -- -- 47
2018-09-13 17:00:00 32 9 Sudeste 19 Sudeste 0 -- -- 45
2018-09-13 16:00:00 32.4 10 Sudeste 20 Sudeste 0 -- -- 44
2018-09-13 15:00:00 31.8 9 Nordeste 22 Norte 0 -- -- 47
2018-09-13 14:00:00 31.5 9 Norte 20 Nordeste 0 -- -- 45
2018-09-13 13:00:00 30.5 7 Nordeste 17 Norte 0 -- -- 47
2018-09-13 12:00:00 29.3 9 Nordeste 15 Nordeste 0 -- -- 50
2018-09-13 11:00:00 28 6 Nordeste 13 Norte 0 -- -- 54
2018-09-13 10:00:00 26.1 6 Norte 12 Norte 0 -- -- 62
2018-09-13 09:00:00 23.1 9 Norte 14 Norte 0 -- -- 74
2018-09-13 08:00:00 21.8 8 Norte 13 Norte 0 -- -- 80
2018-09-13 07:00:00 20.2 8 Este 9 Este 0 -- -- 94
2018-09-13 06:00:00 20.4 6 Nordeste 7 Nordeste 0 -- -- 92
2018-09-13 05:00:00 20.5 4 Nordeste 7 Nordeste 0 -- -- 92
2018-09-13 04:00:00 20.8 4 Nordeste 9 Nordeste 0 -- -- 91
2018-09-13 03:00:00 20.9 5 Este 7 Este 0 -- -- 92
2018-09-13 02:00:00 21.4 0 Calma 5 Sur 0 -- -- 89
2018-09-13 01:00:00 21.6 0 Calma 3 Sur 0 -- -- 88
2018-09-13 00:00:00 22.1 0 Calma 8 Este 0 -- -- 87
2018-09-12 23:00:00 23 3 Oeste 9 Sudoeste 0 -- -- 84
2018-09-12 22:00:00 24.3 7 Sudoeste 13 Sudoeste 0 -- -- 78
2018-09-12 21:00:00 25.3 9 Sudoeste 20 Sur 0 -- -- 69
2018-09-12 20:00:00 26.6 12 Sudoeste 23 Sur 0 -- -- 61
2018-09-12 19:00:00 28 14 Sur 31 Sur 0 -- -- 55
2018-09-12 18:00:00 29.1 16 Sur 32 Sur 0 -- -- 58
2018-09-12 17:00:00 31.6 12 Sur 25 Sudoeste 0 -- -- 50
2018-09-12 16:00:00 30.9 4 Norte 15 Este 0 -- -- 52
2018-09-12 15:00:00 30.2 6 Este 12 Este 0 -- -- 57
2018-09-12 14:00:00 29.9 4 Norte 12 Sudeste 0 -- -- 57
2018-09-12 13:00:00 27.7 3 Norte 12 Nordeste 0 -- -- 67
2018-09-12 12:00:00 26 6 Nordeste 10 Norte 0 -- -- 75
2018-09-12 11:00:00 24.6 8 Nordeste 14 Nordeste 0 -- -- 82
2018-09-12 10:00:00 22.7 5 Nordeste 10 Norte 0 -- -- 91
2018-09-12 09:00:00 21.2 4 Nordeste 6 Nordeste 0 -- -- 96
2018-09-12 08:00:00 20.9 6 Este 7 Este 0 -- -- 96
2018-09-12 07:00:00 21 2 Nordeste 6 Sur 0 -- -- 95
2018-09-12 06:00:00 21.4 4 Sudoeste 5 Sudoeste 0 -- -- 94
2018-09-12 05:00:00 21.7 4 Sudeste 6 Sudeste 0 -- -- 95
2018-09-12 04:00:00 21.3 3 Sur 5 Sur 0 -- -- 94
2018-09-12 03:00:00 21.8 2 Sudeste 5 Sur 0 -- -- 92
2018-09-12 02:00:00 22.1 4 Sur 6 Sur 0 -- -- 90
2018-09-12 01:00:00 22 0 Calma 6 Sudeste 0 -- -- 90
2018-09-12 00:00:00 21.8 2 Sudeste 8 Norte 0 -- -- 91
2018-09-11 23:00:00 22 6 Norte 8 Norte 0 -- -- 90
2018-09-11 22:00:00 23 5 Norte 9 Norte 0 -- -- 85
2018-09-11 21:00:00 24.6 7 Nordeste 24 Nordeste 0 -- -- 76
2018-09-11 20:00:00 26.1 15 Nordeste 25 Norte 0 -- -- 68
2018-09-11 19:00:00 27.7 16 Nordeste 28 Nordeste 0 -- -- 60
2018-09-11 18:00:00 28.1 17 Nordeste 30 Nordeste 0 -- -- 61
2018-09-11 17:00:00 27.3 18 Nordeste 31 Nordeste 0 -- -- 65
2018-09-11 16:00:00 26.7 16 Norte 26 Norte 0 -- -- 67
2018-09-11 15:00:00 25.2 15 Norte 28 Nordeste 0 -- -- 78
2018-09-11 14:00:00 25.9 18 Nordeste 30 Nordeste 0 -- -- 68
2018-09-11 13:00:00 26.8 16 Nordeste 25 Nordeste 0 -- -- 63
2018-09-11 12:00:00 25.6 11 Nordeste 18 Nordeste 0 -- -- 65
2018-09-11 11:00:00 24.5 8 Nordeste 17 Nordeste 0 -- -- 68
2018-09-11 10:00:00 22.5 9 Nordeste 19 Nordeste 0 -- -- 76
2018-09-11 09:00:00 21.4 9 Nordeste 15 Nordeste 0 -- -- 81
2018-09-11 08:00:00 21.1 7 Este 15 Nordeste 0 -- -- 81
2018-09-11 07:00:00 20.9 9 Nordeste 23 Norte 0 -- -- 82
2018-09-11 06:00:00 20.5 9 Nordeste 13 Nordeste 0 -- -- 84
2018-09-11 05:00:00 20.8 6 Nordeste 13 Norte 0 -- -- 86
2018-09-11 04:00:00 21.3 7 Nordeste 15 Norte 0 -- -- 82
2018-09-11 03:00:00 20.3 5 Nordeste 7 Norte 0 -- -- 94
2018-09-11 02:00:00 20.9 6 Nordeste 9 Nordeste 0 -- -- 93
2018-09-11 01:00:00 20.7 7 Nordeste 9 Nordeste 0 -- -- 92
2018-09-11 00:00:00 21.3 6 Norte 10 Nordeste 0 -- -- 89
2018-09-10 23:00:00 22.3 7 Norte 12 Norte 0 -- -- 83
2018-09-10 22:00:00 23.5 8 Nordeste 16 Nordeste 0 -- -- 77
2018-09-10 21:00:00 24.2 11 Nordeste 22 Nordeste 0 -- -- 72
2018-09-10 20:00:00 25.2 13 Nordeste 30 Nordeste 0 -- -- 64
2018-09-10 19:00:00 26.5 14 Nordeste 31 Este 0 -- -- 63
2018-09-10 18:00:00 27.8 17 Este 30 Este 0 -- -- 59
2018-09-10 17:00:00 28.7 17 Este 26 Este 0 -- -- 56
2018-09-10 16:00:00 29.2 10 Este 20 Norte 0 -- -- 55
2018-09-10 15:00:00 29.1 12 Nordeste 23 Nordeste 0 -- -- 49
2018-09-10 14:00:00 28.3 7 Nordeste 18 Nordeste 0 -- -- 53
2018-09-10 13:00:00 27.1 8 Nordeste 17 Norte 0 -- -- 57
2018-09-10 12:00:00 25.8 9 Norte 20 Norte 0 -- -- 59
2018-09-10 11:00:00 24.3 9 Norte 20 Noroeste 0 -- -- 63
2018-09-10 10:00:00 22.8 12 Norte 19 Norte 0 -- -- 65
2018-09-10 09:00:00 21.1 9 Este 21 Nordeste 0 -- -- 72
2018-09-10 08:00:00 19.8 9 Nordeste 19 Este 0 -- -- 76
2018-09-10 07:00:00 20.2 12 Este 21 Este 0 -- -- 73
2018-09-10 06:00:00 20.7 9 Este 23 Este 0 -- -- 72
2018-09-10 05:00:00 21.3 9 Noroeste 28 Oeste 0 -- -- 75
2018-09-10 04:00:00 22 6 Nordeste 11 Nordeste 0 -- -- 85
2018-09-10 03:00:00 21.6 5 Nordeste 9 Nordeste 0 -- -- 90
2018-09-10 02:00:00 21.4 4 Este 7 Este 0 -- -- 92
2018-09-10 01:00:00 21.9 0 Calma 12 Este 0 -- -- 93
2018-09-10 00:00:00 21.5 2 Este 8 Este 0 -- -- 95
2018-09-09 23:00:00 22.2 0 Calma 9 Nordeste 0 -- -- 93
2018-09-09 22:00:00 22.6 0 Calma 5 Este 0 -- -- 91
2018-09-09 21:00:00 23.4 5 Este 15 Norte 0 -- -- 86
2018-09-09 20:00:00 24.5 4 Norte 18 Este 0 -- -- 78
2018-09-09 19:00:00 25.4 8 Norte 15 Nordeste 0 -- -- 73
2018-09-09 18:00:00 24.6 9 Nordeste 18 Este 0 -- -- 76
2018-09-09 17:00:00 25.2 6 Nordeste 26 Norte 0 -- -- 73
2018-09-09 16:00:00 24.1 16 Nordeste 35 Norte 0 -- -- 78
2018-09-09 15:00:00 22.6 20 Norte 33 Noroeste 0 -- -- 83
2018-09-09 14:00:00 23.4 2 Oeste 9 Oeste 0 -- -- 83
2018-09-09 13:00:00 23.8 6 Norte 13 Nordeste 0.2 -- -- 76
2018-09-09 12:00:00 22.2 6 Norte 12 Norte 0.4 -- -- 88
2018-09-09 11:00:00 20.9 3 Norte 19 Sudeste 3 -- -- 91
2018-09-09 10:00:00 21.9 7 Este 10 Nordeste 0 -- -- 78
2018-09-09 09:00:00 22 6 Nordeste 14 Este 0 -- -- 74
2018-09-09 08:00:00 20.8 5 Norte 17 Nordeste 0 -- -- 80
2018-09-09 07:00:00 20.9 8 Nordeste 21 Nordeste 0 -- -- 77
2018-09-09 06:00:00 21 10 Nordeste 21 Nordeste 0 -- -- 77
2018-09-09 05:00:00 20.1 9 Nordeste 14 Nordeste 0 -- -- 86
2018-09-09 04:00:00 19.8 8 Norte 13 Nordeste 0 -- -- 91
2018-09-09 03:00:00 19.3 6 Nordeste 8 Nordeste 0 -- -- 94
2018-09-09 02:00:00 19.2 5 Sudeste 9 Este 0 -- -- 95
2018-09-09 01:00:00 19.2 3 Norte 8 Nordeste 0 -- -- 94
2018-09-09 00:00:00 19.3 6 Nordeste 11 Nordeste 0 -- -- 95
2018-09-08 23:00:00 20 5 Norte 19 Este 0 -- -- 89
2018-09-08 22:00:00 20.9 12 Este 17 Nordeste 0 -- -- 83
2018-09-08 21:00:00 22.2 10 Nordeste 23 Nordeste 0.2 -- -- 82
2018-09-08 20:00:00 23 10 Nordeste 18 Nordeste 0 -- -- 80
2018-09-08 19:00:00 24.2 10 Nordeste 17 Nordeste 0 -- -- 74
2018-09-08 18:00:00 23.9 10 Nordeste 18 Este 0 -- -- 77
2018-09-08 17:00:00 22.7 8 Nordeste 15 Este 0.4 -- -- 78
2018-09-08 16:00:00 21.3 5 Nordeste 26 Este 0.2 -- -- 85
2018-09-08 15:00:00 20.8 13 Nordeste 20 Este 0.4 -- -- 88
2018-09-08 14:00:00 20.7 9 Norte 43 Nordeste 0 -- -- 87
2018-09-08 13:00:00 19.4 21 Nordeste 39 Nordeste 1.4 -- -- 94
2018-09-08 12:00:00 19.9 8 Este 19 Nordeste 5.6 -- -- 92
2018-09-08 11:00:00 20.3 9 Nordeste 15 Nordeste 2.6 -- -- 89
2018-09-08 10:00:00 21.1 3 Nordeste 13 Este 0.4 -- -- 89
2018-09-08 09:00:00 21.2 3 Oeste 12 Nordeste 0 -- -- 84
2018-09-08 08:00:00 20 6 Nordeste 9 Nordeste 0 -- -- 86
2018-09-08 07:00:00 19.7 3 Nordeste 6 Norte 0 -- -- 86
2018-09-08 06:00:00 19.8 3 Nordeste 5 Nordeste 0 -- -- 85
2018-09-08 05:00:00 18.9 0 Calma 5 Norte 0 -- -- 88
2018-09-08 04:00:00 18.7 0 Calma 6 Norte 0 -- -- 87
2018-09-08 03:00:00 18.9 4 Norte 8 Norte 0 -- -- 85
2018-09-08 02:00:00 19.4 5 Nordeste 9 Nordeste 0 -- -- 82
2018-09-08 01:00:00 19.4 2 Nordeste 4 Nordeste 0 -- -- 81
2018-09-08 00:00:00 20.4 0 Calma 4 Nordeste 0 -- -- 77
2018-09-07 23:00:00 22.1 5 Este 9 Nordeste 0 -- -- 67
2018-09-07 22:00:00 23.3 6 Sur 19 Sur 0 -- -- 66
2018-09-07 21:00:00 25.1 15 Oeste 30 Oeste 0 -- -- 60
2018-09-07 20:00:00 27.9 13 Sudeste 26 Sudeste 0 -- -- 45
2018-09-07 19:00:00 30.1 16 Sudeste 26 Sudeste 0 -- -- 38
2018-09-07 18:00:00 31.6 16 Sudeste 29 Este 0 -- -- 37
2018-09-07 17:00:00 32.6 10 Sudeste 41 Sur 0 -- -- 36
2018-09-07 16:00:00 32.3 9 Sur 61 Sudeste 0 -- -- 39
2018-09-07 15:00:00 31.8 9 Sur 28 Sudoeste 0 -- -- 41
2018-09-07 14:00:00 30.9 16 Sur 29 Sudoeste 0 -- -- 46
2018-09-07 13:00:00 29.5 14 Sur 27 Sudoeste 0 -- -- 53
2018-09-07 12:00:00 27.8 3 Oeste 13 Sudoeste 0 -- -- 53
2018-09-07 11:00:00 26.5 5 Noroeste 10 Oeste 0 -- -- 60
2018-09-07 10:00:00 24.1 3 Norte 6 Norte 0 -- -- 78
2018-09-07 09:00:00 20.6 4 Sur 7 Norte 0 -- -- 92
2018-09-07 08:00:00 20.6 3 Norte 11 Sur 0 -- -- 89
2018-09-07 07:00:00 20.6 6 Norte 7 Norte 0 -- -- 85
2018-09-07 06:00:00 20.6 4 Sudeste 5 Sudeste 0 -- -- 86
2018-09-07 05:00:00 20.8 0 Calma 3 Noroeste 0 -- -- 85
2018-09-07 04:00:00 20.9 0 Calma 6 Este 0 -- -- 82
2018-09-07 03:00:00 21 4 Nordeste 9 Nordeste 0 -- -- 78
2018-09-07 02:00:00 21.4 3 Nordeste 8 Sudeste 0 -- -- 74
2018-09-07 01:00:00 22.2 2 Sur 8 Nordeste 0 -- -- 74
2018-09-07 00:00:00 23.2 6 Nordeste 15 Nordeste 0 -- -- 66
2018-09-06 23:00:00 24.7 12 Este 18 Nordeste 0 -- -- 55
2018-09-06 22:00:00 24.8 6 Nordeste 12 Oeste 0 -- -- 47
2018-09-06 21:00:00 26.4 4 Sudoeste 20 Sur 0 -- -- 41
2018-09-06 20:00:00 28.4 12 Sudoeste 25 Sudoeste 0 -- -- 36
2018-09-06 19:00:00 30.3 16 Sur 32 Sur 0 -- -- 37
2018-09-06 18:00:00 31.3 22 Sur 40 Sudoeste 0 -- -- 37
2018-09-06 17:00:00 33.5 11 Sur 29 Sudeste 0 -- -- 34
2018-09-06 16:00:00 33.9 4 Nordeste 15 Oeste 0 -- -- 25
2018-09-06 15:00:00 32.7 4 Oeste 21 Sudoeste 0 -- -- 26
2018-09-06 14:00:00 31.5 5 Nordeste 18 Noroeste 0 -- -- 29
2018-09-06 13:00:00 31 5 Sudeste 17 Este 0 -- -- 32
2018-09-06 12:00:00 29.2 8 Norte 23 Noroeste 0 -- -- 36
2018-09-06 11:00:00 28.1 11 Norte 20 Noroeste 0 -- -- 38
2018-09-06 10:00:00 26.6 8 Este 16 Este 0 -- -- 38
2018-09-06 09:00:00 23.2 5 Nordeste 12 Nordeste 0 -- -- 45
2018-09-06 08:00:00 21.6 10 Nordeste 15 Nordeste 0 -- -- 50
2018-09-06 07:00:00 20.3 5 Norte 8 Norte 0 -- -- 58
2018-09-06 06:00:00 21.9 6 Este 17 Este 0 -- -- 54
2018-09-06 05:00:00 20.3 7 Nordeste 12 Nordeste 0 -- -- 71
2018-09-06 04:00:00 20.3 3 Sudoeste 7 Sur 0 -- -- 79
2018-09-06 03:00:00 20.9 6 Este 12 Este 0 -- -- 65
2018-09-06 02:00:00 20.6 3 Sur 9 Sur 0 -- -- 89
2018-09-06 01:00:00 21.3 7 Sur 17 Sudoeste 0 -- -- 88
2018-09-06 00:00:00 22.5 13 Sudoeste 26 Oeste 0 -- -- 84
2018-09-05 23:00:00 22.9 10 Sudoeste 27 Sudoeste 0 -- -- 80
2018-09-05 22:00:00 23.7 10 Oeste 22 Sudoeste 0 -- -- 67
2018-09-05 21:00:00 25.8 4 Norte 18 Sudoeste 0 -- -- 42
2018-09-05 20:00:00 29.6 5 Oeste 24 Sur 0 -- -- 34
2018-09-05 19:00:00 30.3 15 Sur 31 Sur 0 -- -- 34
2018-09-05 18:00:00 31 20 Sur 37 Sur 0 -- -- 39
2018-09-05 17:00:00 31.1 20 Sur 40 Sur 0 -- -- 48
2018-09-05 16:00:00 31.9 21 Sur 40 Sudoeste 0 -- -- 50
2018-09-05 15:00:00 32.8 15 Sur 27 Sur 0 -- -- 48
2018-09-05 14:00:00 31.3 6 Nordeste 15 Nordeste 0 -- -- 47
2018-09-05 13:00:00 30.4 9 Nordeste 18 Este 0 -- -- 51
2018-09-05 12:00:00 29.3 10 Nordeste 19 Nordeste 0.2 -- -- 58
2018-09-05 11:00:00 27.3 8 Nordeste 14 Nordeste 0 -- -- 68
2018-09-05 10:00:00 25.8 5 Norte 11 Norte 0 -- -- 77
2018-09-05 09:00:00 22.7 4 Nordeste 7 Nordeste 0 -- -- 89
2018-09-05 08:00:00 19.8 0 Calma 3 Oeste 0 -- -- 92
2018-09-05 07:00:00 20.1 0 Calma -- -- 0 -- -- 93
2018-09-05 06:00:00 20.6 0 Calma 3 Sudeste 0 -- -- 91
2018-09-05 05:00:00 20.3 4 Sudeste 9 Sur 0 -- -- 93
2018-09-05 04:00:00 20 7 Sur 9 Sur 0 -- -- 91
2018-09-05 03:00:00 20.5 4 Sur 7 Sudeste 0 -- -- 89
2018-09-05 02:00:00 21 0 Calma 3 Sudeste 0 -- -- 90
2018-09-05 01:00:00 21.9 0 Calma 4 Oeste 0 -- -- 86
2018-09-05 00:00:00 22.8 3 Sudeste 8 Oeste 0 -- -- 82
2018-09-04 23:00:00 23.8 5 Sur 12 Sur 0 -- -- 77
2018-09-04 22:00:00 25 2 Sur 12 Sudoeste 0 -- -- 73
2018-09-04 21:00:00 26.1 2 Norte 22 Oeste 0 -- -- 69
2018-09-04 20:00:00 27.4 13 Sudoeste 33 Sudoeste 0 -- -- 66
2018-09-04 19:00:00 28.9 18 Sudoeste 38 Sudoeste 0 -- -- 62
2018-09-04 18:00:00 29.3 14 Sur 32 Sudoeste 0 -- -- 61
2018-09-04 17:00:00 34.2 7 Sudeste 36 Sudeste 0 -- -- 43
2018-09-04 16:00:00 33.2 5 Norte 21 Nordeste 0 -- -- 43
2018-09-04 15:00:00 32.4 5 Norte 18 Nordeste 0 -- -- 47
2018-09-04 14:00:00 31.9 6 Este 15 Este 0 -- -- 50
2018-09-04 13:00:00 30 5 Nordeste 11 Oeste 0 -- -- 57
2018-09-04 12:00:00 28.7 4 Nordeste 12 Nordeste 0 -- -- 60
2018-09-04 11:00:00 26.7 6 Nordeste 11 Nordeste 0 -- -- 70
2018-09-04 10:00:00 24.2 3 Sudoeste 6 Sudoeste 0 -- -- 75
2018-09-04 09:00:00 21.2 2 Sudoeste 4 Oeste 0 -- -- 87
2018-09-04 08:00:00 19.6 0 Calma 5 Sudeste 0 -- -- 93
2018-09-04 07:00:00 19.9 3 Nordeste 6 Este 0 -- -- 90
2018-09-04 06:00:00 20.5 4 Nordeste 9 Nordeste 0 -- -- 88
2018-09-04 05:00:00 20.5 6 Este 8 Nordeste 0 -- -- 92
2018-09-04 04:00:00 20.7 0 Calma 8 Este 0 -- -- 91
2018-09-04 03:00:00 21.4 7 Este 9 Nordeste 0 -- -- 89
2018-09-04 02:00:00 22.1 4 Sudoeste 9 Sudeste 0 -- -- 88
2018-09-04 01:00:00 22.8 3 Sur 5 Sudoeste 0 -- -- 88
2018-09-04 00:00:00 23.6 4 Sudoeste 12 Sur 0 -- -- 83
2018-09-03 23:00:00 24.6 6 Sudoeste 19 Nordeste 0 -- -- 79
2018-09-03 22:00:00 25.5 11 Nordeste 22 Nordeste 0 -- -- 75
2018-09-03 21:00:00 26.3 12 Nordeste 23 Nordeste 0 -- -- 75
2018-09-03 20:00:00 27.7 13 Norte 22 Nordeste 0 -- -- 66
2018-09-03 19:00:00 29.2 7 Noroeste 21 Norte 0 -- -- 54
2018-09-03 18:00:00 31.5 9 Noroeste 22 Sudeste 0 -- -- 51
2018-09-03 17:00:00 32 8 Noroeste 16 Noroeste 0 -- -- 49
2018-09-03 16:00:00 32.3 7 Norte 18 Norte 0 -- -- 50
2018-09-03 15:00:00 31.9 5 Nordeste 12 Nordeste 0 -- -- 47
2018-09-03 14:00:00 30.6 7 Nordeste 13 Nordeste 0 -- -- 52
2018-09-03 13:00:00 29.5 5 Nordeste 13 Norte 0 -- -- 55
2018-09-03 12:00:00 29 10 Nordeste 18 Nordeste 0 -- -- 59
2018-09-03 11:00:00 26.1 10 Nordeste 15 Nordeste 0 -- -- 75
2018-09-03 10:00:00 24.7 10 Nordeste 16 Nordeste 0 -- -- 83
2018-09-03 09:00:00 22.8 3 Este 8 Nordeste 0 -- -- 88
2018-09-03 08:00:00 21.4 3 Este 6 Sudoeste 0 -- -- 96
2018-09-03 07:00:00 21.1 4 Sur 9 Sudoeste 0 -- -- 93
2018-09-03 06:00:00 21.9 7 Sur 10 Sudoeste 0 -- -- 92
2018-09-03 05:00:00 23.1 0 Calma 11 Nordeste 0 -- -- 90
2018-09-03 04:00:00 23.8 8 Nordeste 17 Nordeste 0 -- -- 89
2018-09-03 03:00:00 23.2 9 Nordeste 19 Nordeste 0 -- -- 90
2018-09-03 02:00:00 23.8 10 Este 22 Sudoeste 0 -- -- 86
2018-09-03 01:00:00 24 5 Sudoeste 13 Oeste 0 -- -- 87
2018-09-03 00:00:00 24.2 5 Sudoeste 15 Sudoeste 0 -- -- 85
2018-09-02 23:00:00 24.8 6 Sudoeste 19 Oeste 0 -- -- 81
2018-09-02 22:00:00 25.7 9 Oeste 22 Oeste 0 -- -- 75
2018-09-02 21:00:00 27.1 11 Oeste 26 Oeste 0 -- -- 67
2018-09-02 20:00:00 31.2 10 Norte 22 Sudoeste 0 -- -- 50
2018-09-02 19:00:00 33.1 11 Sudoeste 28 Sur 0 -- -- 45
2018-09-02 18:00:00 32.7 18 Sudoeste 30 Sudoeste 0 -- -- 44
2018-09-02 17:00:00 35.2 13 Sudoeste 28 Sudoeste 0 -- -- 38
2018-09-02 16:00:00 34.7 16 Sudoeste 26 Sudoeste 0 -- -- 36
2018-09-02 15:00:00 33.3 5 Sudeste 12 Nordeste 0 -- -- 40
2018-09-02 14:00:00 31.3 5 Noroeste 12 Nordeste 0 -- -- 49
2018-09-02 13:00:00 29.5 3 Noroeste 8 Noroeste 0 -- -- 59
2018-09-02 12:00:00 27.4 4 Nordeste 13 Norte 0 -- -- 67
2018-09-02 11:00:00 25.9 6 Nordeste 10 Nordeste 0 -- -- 72
2018-09-02 10:00:00 24.4 5 Nordeste 9 Norte 0 -- -- 79
2018-09-02 09:00:00 22.2 2 Norte 8 Este 0 -- -- 85
2018-09-02 08:00:00 20.3 6 Este 7 Este 0 -- -- 94
2018-09-02 07:00:00 19.9 4 Nordeste 6 Nordeste 0 -- -- 91
2018-09-02 06:00:00 20.1 2 Nordeste 6 Nordeste 0 -- -- 90
2018-09-02 05:00:00 20.5 5 Este 6 Este 0 -- -- 88
2018-09-02 04:00:00 20.6 5 Este 6 Nordeste 0 -- -- 88
2018-09-02 03:00:00 20.7 0 Calma 4 Sur 0 -- -- 89
2018-09-02 02:00:00 21.2 4 Sur 6 Sur 0 -- -- 85
2018-09-02 01:00:00 22.4 3 Este 8 Nordeste 0 -- -- 84
2018-09-02 00:00:00 23.3 4 Norte 9 Sudeste 0 -- -- 78
2018-09-01 23:00:00 23.6 7 Sur 9 Oeste 0 -- -- 76
2018-09-01 22:00:00 25.2 4 Oeste 13 Norte 0 -- -- 70
2018-09-01 21:00:00 26.7 4 Nordeste 18 Norte 0 -- -- 63
2018-09-01 20:00:00 29.4 10 Norte 19 Norte 0 -- -- 53
2018-09-01 19:00:00 31.6 11 Norte 19 Noroeste 0 -- -- 46
2018-09-01 18:00:00 32.6 13 Nordeste 27 Nordeste 0 -- -- 43
2018-09-01 17:00:00 32.9 14 Nordeste 23 Nordeste 0 -- -- 43
2018-09-01 16:00:00 32.6 15 Nordeste 24 Norte 0 -- -- 46
2018-09-01 15:00:00 31.6 9 Norte 21 Nordeste 0 -- -- 47
2018-09-01 14:00:00 30.4 9 Norte 23 Nordeste 0 -- -- 53
2018-09-01 13:00:00 29.8 7 Nordeste 19 Nordeste 0 -- -- 55
2018-09-01 12:00:00 28.3 6 Nordeste 16 Nordeste 0 -- -- 61
2018-09-01 11:00:00 26.4 10 Norte 16 Norte 0 -- -- 70
2018-09-01 10:00:00 24.6 9 Nordeste 13 Nordeste 0 -- -- 79
2018-09-01 09:00:00 22.6 5 Norte 9 Norte 0 -- -- 89
2018-09-01 08:00:00 21.6 3 Norte 4 Nordeste 0 -- -- 92
2018-09-01 07:00:00 21.9 4 Norte 5 Norte 0 -- -- 91
2018-09-01 06:00:00 21.8 3 Nordeste 7 Nordeste 0 -- -- 92
2018-09-01 05:00:00 22.1 5 Nordeste 10 Nordeste 0 -- -- 90
2018-09-01 04:00:00 21.7 5 Norte 8 Nordeste 0 -- -- 90
2018-09-01 03:00:00 21.5 5 Nordeste 8 Nordeste 0 -- -- 91
2018-09-01 02:00:00 21.9 5 Nordeste 9 Nordeste 0 -- -- 87
2018-09-01 01:00:00 22.9 5 Norte 13 Nordeste 0 -- -- 85
2018-09-01 00:00:00 23.4 6 Nordeste 11 Nordeste 0 -- -- 80
2018-08-31 23:00:00 24.5 7 Nordeste 10 Nordeste 0 -- -- 76
2018-08-31 22:00:00 25.5 6 Norte 16 Nordeste 0 -- -- 71
2018-08-31 21:00:00 27 10 Norte 19 Nordeste 0 -- -- 63
2018-08-31 20:00:00 29.4 9 Nordeste 20 Norte 0 -- -- 54
2018-08-31 19:00:00 31.6 9 Nordeste 21 Norte 0 -- -- 50
2018-08-31 18:00:00 32.7 11 Nordeste 23 Nordeste 0 -- -- 47
2018-08-31 17:00:00 33.3 12 Nordeste 24 Nordeste 0 -- -- 46
2018-08-31 16:00:00 33.3 13 Norte 26 Norte 0 -- -- 45
2018-08-31 15:00:00 32.2 12 Norte 24 Norte 0 -- -- 48
2018-08-31 14:00:00 31 8 Norte 20 Norte 0 -- -- 51
2018-08-31 13:00:00 29.5 13 Norte 20 Nordeste 0 -- -- 56
2018-08-31 12:00:00 28 11 Nordeste 20 Norte 0 -- -- 62
2018-08-31 11:00:00 26.2 11 Nordeste 17 Norte 0 -- -- 72
2018-08-31 10:00:00 25 9 Norte 15 Norte 0 -- -- 80
2018-08-31 09:00:00 22.9 8 Nordeste 11 Nordeste 0 -- -- 92
2018-08-31 08:00:00 20.9 6 Norte 8 Nordeste 0 -- -- 95
2018-08-31 07:00:00 21 4 Norte 10 Nordeste 0 -- -- 94
2018-08-31 06:00:00 21.4 6 Nordeste 7 Nordeste 0 -- -- 93
2018-08-31 05:00:00 22.4 5 Nordeste 8 Norte 0 -- -- 90
2018-08-31 04:00:00 22.5 6 Nordeste 10 Nordeste 0 -- -- 91
2018-08-31 03:00:00 21.9 2 Nordeste 6 Este 0 -- -- 91
2018-08-31 02:00:00 22.3 5 Nordeste 6 Nordeste 0 -- -- 89
2018-08-31 01:00:00 23 4 Norte 11 Este 0 -- -- 86
2018-08-31 00:00:00 24.2 4 Este 13 Nordeste 0 -- -- 80
2018-08-30 23:00:00 24.7 5 Nordeste 15 Nordeste 0 -- -- 78
2018-08-30 22:00:00 25.6 10 Nordeste 21 Nordeste 0 -- -- 74
2018-08-30 21:00:00 26.6 13 Nordeste 26 Nordeste 0 -- -- 68
2018-08-30 20:00:00 28.7 14 Nordeste 25 Nordeste 0 -- -- 61
2018-08-30 19:00:00 30 17 Nordeste 28 Nordeste 0 -- -- 55
2018-08-30 18:00:00 31.2 14 Nordeste 27 Nordeste 0 -- -- 50
2018-08-30 17:00:00 30.7 12 Nordeste 22 Nordeste 0 -- -- 52
2018-08-30 16:00:00 30.9 12 Nordeste 26 Norte 0 -- -- 51
2018-08-30 15:00:00 31.2 10 Nordeste 25 Nordeste 0 -- -- 50
2018-08-30 14:00:00 29.8 7 Norte 21 Este 0 -- -- 57
2018-08-30 13:00:00 28.8 11 Nordeste 19 Norte 0 -- -- 60
2018-08-30 12:00:00 28.1 8 Nordeste 17 Norte 0 -- -- 62
2018-08-30 11:00:00 26.8 9 Nordeste 18 Norte 0 -- -- 68
2018-08-30 10:00:00 25.6 6 Nordeste 13 Nordeste 0 -- -- 77
2018-08-30 09:00:00 23.8 5 Nordeste 8 Nordeste 0 -- -- 86
2018-08-30 08:00:00 23 2 Este 8 Norte 0 -- -- 89
2018-08-30 07:00:00 23.5 6 Norte 16 Nordeste 0 -- -- 85
2018-08-30 06:00:00 23.7 9 Norte 14 Norte 0 -- -- 87
2018-08-30 05:00:00 23.4 10 Norte 18 Nordeste 0 -- -- 88
2018-08-30 04:00:00 24 12 Nordeste 19 Norte 0 -- -- 85
2018-08-30 03:00:00 23.8 11 Norte 19 Norte 0 -- -- 83
2018-08-30 02:00:00 23.6 6 Sudeste 8 Sudeste 0 -- -- 86
2018-08-30 01:00:00 23.9 4 Sudeste 8 Sudeste 0 -- -- 83
2018-08-30 00:00:00 24.4 4 Norte 26 Nordeste 0 -- -- 79
2018-08-29 23:00:00 25.2 12 Nordeste 25 Nordeste 0 -- -- 78
2018-08-29 22:00:00 26.8 7 Sur 17 Oeste 0 -- -- 71
2018-08-29 21:00:00 28.2 5 Noroeste 14 Noroeste 0 -- -- 61
2018-08-29 20:00:00 30.8 6 Norte 15 Nordeste 0 -- -- 54
2018-08-29 19:00:00 33.4 5 Nordeste 42 Sudeste 0 -- -- 47
2018-08-29 18:00:00 34.6 12 Sur 36 Sudoeste 0 -- -- 45
2018-08-29 17:00:00 35.2 8 Norte 16 Este 0 -- -- 34
2018-08-29 16:00:00 34.2 9 Norte 18 Norte 0 -- -- 37
2018-08-29 15:00:00 33.8 5 Este 15 Nordeste 0 -- -- 39
2018-08-29 14:00:00 32.4 6 Norte 18 Sudoeste 0 -- -- 42
2018-08-29 13:00:00 30.6 6 Nordeste 13 Nordeste 0 -- -- 47
2018-08-29 12:00:00 29.3 7 Nordeste 13 Nordeste 0 -- -- 53
2018-08-29 11:00:00 27.6 4 Oeste 10 Oeste 0 -- -- 55
2018-08-29 10:00:00 24.8 2 Nordeste 6 Norte 0 -- -- 72
2018-08-29 09:00:00 21.2 5 Nordeste 8 Nordeste 0 -- -- 90
2018-08-29 08:00:00 20 5 Nordeste 8 Nordeste 0 -- -- 92
2018-08-29 07:00:00 20.8 2 Noroeste 7 Este 0 -- -- 92
2018-08-29 06:00:00 21.2 4 Este 9 Este 0 -- -- 92
2018-08-29 05:00:00 21.1 6 Nordeste 9 Nordeste 0 -- -- 92
2018-08-29 04:00:00 20.9 5 Nordeste 9 Nordeste 0 -- -- 89
2018-08-29 03:00:00 21.9 8 Este 9 Nordeste 0 -- -- 88
2018-08-29 02:00:00 22.2 7 Este 9 Este 0 -- -- 82
2018-08-29 01:00:00 22.6 7 Este 9 Nordeste 0 -- -- 78
2018-08-29 00:00:00 22.7 5 Este 8 Sudoeste 0 -- -- 78
2018-08-28 23:00:00 23.6 8 Sur 12 Sur 0 -- -- 74
2018-08-28 22:00:00 25.6 0 Calma 9 Noroeste 0 -- -- 65
2018-08-28 21:00:00 27.4 5 Oeste 10 Noroeste 0 -- -- 53
2018-08-28 20:00:00 30.8 4 Noroeste 26 Oeste 0 -- -- 41
2018-08-28 19:00:00 34 15 Oeste 29 Oeste 0 -- -- 33
2018-08-28 18:00:00 35.4 9 Sur 22 Sudoeste 0 -- -- 31
2018-08-28 17:00:00 35.6 11 Sudoeste 21 Sudoeste 0 -- -- 37
2018-08-28 16:00:00 34 8 Norte 18 Norte 0 -- -- 38
2018-08-28 15:00:00 32.5 6 Norte 15 Nordeste 0 -- -- 45
2018-08-28 14:00:00 30.8 8 Nordeste 18 Norte 0 -- -- 50
2018-08-28 13:00:00 29.2 8 Nordeste 18 Nordeste 0 -- -- 54
2018-08-28 12:00:00 26.7 12 Nordeste 19 Norte 0 -- -- 69
2018-08-28 11:00:00 24.6 8 Nordeste 12 Nordeste 0 -- -- 83
2018-08-28 10:00:00 23.5 5 Norte 18 Nordeste 0 -- -- 88
2018-08-28 09:00:00 22.5 13 Nordeste 21 Este 0 -- -- 91
2018-08-28 08:00:00 21.2 6 Nordeste 9 Nordeste 0 -- -- 92
2018-08-28 07:00:00 20.6 4 Este 8 Este 0 -- -- 94
2018-08-28 06:00:00 20.6 4 Nordeste 8 Sudoeste 0 -- -- 92
2018-08-28 05:00:00 20.9 4 Sur 8 Sur 0 -- -- 91
2018-08-28 04:00:00 21.3 3 Nordeste 5 Este 0 -- -- 89
2018-08-28 03:00:00 21.9 3 Nordeste 5 Nordeste 0 -- -- 87
2018-08-28 02:00:00 22.2 6 Sur 10 Sur 0 -- -- 85
2018-08-28 01:00:00 22.5 6 Sudoeste 8 Sur 0 -- -- 83
2018-08-28 00:00:00 23.7 5 Nordeste 12 Norte 0 -- -- 80
2018-08-27 23:00:00 24.9 4 Nordeste 9 Este 0 -- -- 70
2018-08-27 22:00:00 25.8 8 Nordeste 17 Este 0 -- -- 65
2018-08-27 21:00:00 27.4 8 Norte 19 Norte 0 -- -- 59
2018-08-27 20:00:00 30.1 13 Norte 20 Norte 0 -- -- 51
2018-08-27 19:00:00 32.1 12 Norte 21 Norte 0 -- -- 47
2018-08-27 18:00:00 33.2 11 Norte 30 Norte 0 -- -- 43
2018-08-27 17:00:00 34.1 13 Norte 26 Nordeste 0 -- -- 42
2018-08-27 16:00:00 34 14 Norte 25 Nordeste 0 -- -- 40
2018-08-27 15:00:00 34 10 Norte 30 Noroeste 0 -- -- 39
2018-08-27 14:00:00 32.2 6 Nordeste 16 Norte 0 -- -- 48
2018-08-27 13:00:00 30.6 6 Norte 16 Nordeste 0 -- -- 55
2018-08-27 12:00:00 28.7 7 Norte 15 Norte 0 -- -- 63
2018-08-27 11:00:00 27.3 6 Norte 12 Norte 0 -- -- 67
2018-08-27 10:00:00 25.4 0 Calma 5 Oeste 0 -- -- 78
2018-08-27 09:00:00 23 2 Noroeste 4 Norte 0 -- -- 86
2018-08-27 08:00:00 22.1 0 Calma 4 Sudoeste 0 -- -- 91
2018-08-27 07:00:00 22.4 3 Sudoeste 4 Sudoeste 0 -- -- 90
2018-08-27 06:00:00 22.8 0 Calma 4 Sur 0 -- -- 90
2018-08-27 05:00:00 22.2 2 Sur 4 Sudoeste 0 -- -- 92
2018-08-27 04:00:00 22 5 Sur 6 Sur 0 -- -- 90
2018-08-27 03:00:00 22.6 0 Calma 3 Sur 0 -- -- 90
2018-08-27 02:00:00 22.8 3 Sur 5 Sudoeste 0 -- -- 88
2018-08-27 01:00:00 23.7 0 Calma 7 Sudoeste 0 -- -- 84
2018-08-27 00:00:00 24.5 3 Noroeste 10 Este 0 -- -- 81
2018-08-26 23:00:00 25.1 2 Nordeste 12 Nordeste 0 -- -- 79
2018-08-26 22:00:00 26 5 Nordeste 16 Noroeste 0 -- -- 76
2018-08-26 21:00:00 27.6 10 Oeste 24 Sudoeste 0 -- -- 67
2018-08-26 20:00:00 30.6 13 Sudoeste 24 Sudoeste 0 -- -- 55
2018-08-26 19:00:00 32.5 9 Sudoeste 18 Sudoeste 0 -- -- 50
2018-08-26 18:00:00 32.8 11 Nordeste 27 Nordeste 0 -- -- 50
2018-08-26 17:00:00 33.5 12 Nordeste 27 Norte 0 -- -- 48
2018-08-26 16:00:00 33.3 10 Nordeste 23 Norte 0 -- -- 44
2018-08-26 15:00:00 32.3 7 Norte 17 Nordeste 0 -- -- 46
2018-08-26 14:00:00 30.9 10 Norte 21 Norte 0 -- -- 52
2018-08-26 13:00:00 29.4 9 Nordeste 19 Nordeste 0 -- -- 58
2018-08-26 12:00:00 28.1 10 Norte 19 Nordeste 0 -- -- 63
2018-08-26 11:00:00 26.9 10 Nordeste 18 Nordeste 0 -- -- 69
2018-08-26 10:00:00 25.6 8 Nordeste 13 Norte 0 -- -- 75
2018-08-26 09:00:00 24.2 4 Nordeste 7 Nordeste 0 -- -- 80
2018-08-26 08:00:00 22.3 2 Norte 4 Nordeste 0 -- -- 85
2018-08-26 07:00:00 21.2 3 Nordeste 4 Norte 0 -- -- 89
2018-08-26 06:00:00 21.8 3 Norte 10 Este 0 -- -- 86
2018-08-26 05:00:00 22.3 7 Este 10 Nordeste 0 -- -- 84
2018-08-26 04:00:00 21.6 6 Este 8 Nordeste 0 -- -- 86
2018-08-26 03:00:00 21.8 4 Nordeste 8 Norte 0 -- -- 84
2018-08-26 02:00:00 22 4 Nordeste 6 Nordeste 0 -- -- 80
2018-08-26 01:00:00 22.6 0 Calma 6 Norte 0 -- -- 79
2018-08-26 00:00:00 23.6 2 Norte 6 Norte 0 -- -- 77
2018-08-25 23:00:00 25.1 3 Norte 11 Sur 0 -- -- 71
2018-08-25 22:00:00 26.1 6 Sur 10 Sudoeste 0 -- -- 63
2018-08-25 21:00:00 28.2 6 Sudoeste 29 Oeste 0 -- -- 55
2018-08-25 20:00:00 30.6 11 Oeste 27 Oeste 0 -- -- 49
2018-08-25 19:00:00 33.4 10 Oeste 23 Oeste 0 -- -- 41
2018-08-25 18:00:00 34.8 5 Este 16 Sudeste 0 -- -- 38
2018-08-25 17:00:00 34.9 6 Noroeste 14 Norte 0 -- -- 37
2018-08-25 16:00:00 34 4 Norte 12 Oeste 0 -- -- 39
2018-08-25 15:00:00 33.7 6 Nordeste 17 Norte 0 -- -- 40
2018-08-25 14:00:00 32.4 9 Norte 16 Norte 0 -- -- 43
2018-08-25 13:00:00 30.4 10 Nordeste 21 Nordeste 0 -- -- 53
2018-08-25 12:00:00 28.6 12 Nordeste 25 Nordeste 0 -- -- 61
2018-08-25 11:00:00 27.1 13 Nordeste 19 Nordeste 0 -- -- 69
2018-08-25 10:00:00 25.4 11 Nordeste 16 Nordeste 0 -- -- 74
2018-08-25 09:00:00 23 6 Nordeste 14 Nordeste 0 -- -- 79
2018-08-25 08:00:00 22.9 8 Norte 11 Nordeste 0 -- -- 78
2018-08-25 07:00:00 22.8 7 Nordeste 9 Nordeste 0 -- -- 77
2018-08-25 06:00:00 23.3 5 Norte 10 Este 0 -- -- 78
2018-08-25 05:00:00 22.3 0 Calma 5 Sudeste 0 -- -- 82
2018-08-25 04:00:00 21.7 3 Sur 6 Sudeste 0 -- -- 80
2018-08-25 03:00:00 22.1 4 Sudoeste 8 Este 0 -- -- 77
2018-08-25 02:00:00 23.4 4 Este 10 Oeste 0 -- -- 66
2018-08-25 01:00:00 25 5 Oeste 19 Sur 0 -- -- 59
2018-08-25 00:00:00 28.7 9 Sur 24 Sur 0 -- -- 38